Silver Star, Montana
Current Conditions -  °F | °C
As of 2:53 PM on Friday 19 Dec 2014 (Local Time) from KBTM Reporting Station
Overcast Overcast  
Wind Chill: 30°   Ceiling: 8500
Heat Index: 35°   Visibility: 10mi
Dew Point: 26°   Wind: 6mph
Humidity: 70%   Direction: 40°NE
Pressure: 29.88"   Gusts: NA
Location:  45.69°N, 112.28°W
Report Text: KBTM 192153Z AUTO 04005KT 10SM SCT070 OVC085 02/M03 A2988 RMK AO2 SLP162 T00171033
Loading
Personal Weather Stations






























Interactive Weather Map New forecast layout! Learn more

10-Day Weather Forecast

Advertisements
Track Severe Weather on mobile